Aérodrome :
LOGIN :

S'inscrire | Disclaimer

   EN    FR    IT 

 










Légende :    VFR   VFR Marginal   IFR   IFR Intensif   IFR Très Intensif
Visi : 
Plafond : 
>= 8 km
>= 3000ft
5 à 8 km
1000 à 3000 ft
1500m à 5 km
500 à 1000 ft
800 à 1500m
200 à 500 ft
< 800m
< 200 ft
Symboles :   Orages  Brouillard  Fortes neiges  Fortes précipitations  Vent > 20 kt
SIGMETs :   Divers  Orages  Givrage  Turbulence  Onde Orograph.  Cendres Volcan.







- Altitude de l'aérodrome : 286 ft
- Code IATA : FFD


EGVA - RAF Fairford

DERNIER METAR :
  • 210046Z AUTO 22010KT 9999 BKN090 14/12 A2953 RMK AO2 RAB05E18RAB37E46 SLP003 $

METARs EXPIRÉS :
  • 210037Z AUTO 22010KT 9999 -RA FEW033 OVC090 14/12 A2953 RMK AO2 RAB05E18RAB37 SLP003 $
  • 210028Z AUTO 22012G19KT 9999 FEW014 SCT033 OVC090 14/12 A2953 RMK AO2 RAB05E18 SLP003 $
  • 210018Z AUTO 21013G24KT 9999 SCT014 SCT020 BKN033 OVC085 14/13 A2953 RMK AO2 RAB05E18 SLP003 $
  • 210005Z AUTO 20020G29KT 9999 -RA OVC013 15/13 A2954 RMK AO2 RAB05 OVC V BKN SLP006 $
  • 202346Z AUTO 18012KT 9999 OVC010 14/13 A2953 RMK AO2 RAB2257E45DZB45E46 OVC V BKN SLP003 $
  • 202327Z AUTO 17013KT 9999 -RA BKN010 OVC020 14/12 A2954 RMK AO2 RAB2257 SLP006 $
  • 202257Z AUTO 16012G21KT 9999 -RA OVC009 13/12 A2955 RMK AO2 RAB57 SLP010 $
  • 202229Z AUTO 15012KT 9999 BKN012 OVC018 13/11 A2957 RMK AO2 DZB2159E01RAB01E24 CIG 012V017 SLP016 $
  • 202214Z AUTO 15014KT 9999 -RA FEW007 BKN018 OVC022 13/11 A2958 RMK AO2 DZB2159E01RAB01 CIG 017 RWY09 SLP020 $
  • 202159Z AUTO 16014G19KT 9999 -DZ OVC021 14/11 A2958 RMK AO2 DZB59 SLP020 $

Prévision TAF périmée.
Pas de NOTAMs connus pour ce terrain.
1 SIGMET publié pour la FIR London (EGTT) :
 
Turbulence forte
EGTT SIGMET 08 VALID 202200/210200 EGRR
EGTT LONDON FIR SEV TURB FCST W OF LINE N5132 W00700 - N4902 W00700 SFC/FL060 MOV E 20KT INTSF=



MET'MAP, la Météo Aéronautique d'un coup d'oeil ! - Copyright ORBIFLY Décembre 2007 - Disclaimer

ORBIFLY MET'MAP TEAM :

Programmation & Développement : Alexandra Zaïnal
Conception & Développement : Baudouin d'Aumeries
Co-Programmation & Développement : Marc-Olivier Méhu
Soutien technique & logistique : Manuel Goepfert

Contact : metmap@orbifly.com




SOURCES & CREDITS :

   NOAA